sensor_id;sensor_type;location;lat;lon;timestamp;P1;durP1;ratioP1;P2;durP2;ratioP2
79074;SDS011;68476;42.710;23.388;2024-02-04T00:02:22;17.20;;;8.45;;
79074;SDS011;68476;42.710;23.388;2024-02-04T00:04:50;12.35;;;7.43;;
79074;SDS011;68476;42.710;23.388;2024-02-04T00:07:15;13.90;;;8.05;;
79074;SDS011;68476;42.710;23.388;2024-02-04T00:09:41;17.02;;;7.72;;
79074;SDS011;68476;42.710;23.388;2024-02-04T00:12:09;13.45;;;7.35;;
79074;SDS011;68476;42.710;23.388;2024-02-04T00:14:34;17.33;;;8.57;;
79074;SDS011;68476;42.710;23.388;2024-02-04T00:17:00;12.63;;;8.10;;
79074;SDS011;68476;42.710;23.388;2024-02-04T00:19:25;15.60;;;8.32;;
79074;SDS011;68476;42.710;23.388;2024-02-04T00:21:51;14.45;;;7.40;;
79074;SDS011;68476;42.710;23.388;2024-02-04T00:24:17;13.88;;;7.72;;
79074;SDS011;68476;42.710;23.388;2024-02-04T00:26:46;13.52;;;7.53;;
79074;SDS011;68476;42.710;23.388;2024-02-04T00:29:12;13.82;;;7.50;;
79074;SDS011;68476;42.710;23.388;2024-02-04T00:31:37;13.48;;;8.02;;
79074;SDS011;68476;42.710;23.388;2024-02-04T00:34:03;11.73;;;7.22;;
79074;SDS011;68476;42.710;23.388;2024-02-04T00:36:29;13.70;;;7.72;;
79074;SDS011;68476;42.710;23.388;2024-02-04T00:38:55;16.05;;;7.50;;
79074;SDS011;68476;42.710;23.388;2024-02-04T00:41:20;15.20;;;8.70;;
79074;SDS011;68476;42.710;23.388;2024-02-04T00:43:46;14.07;;;7.70;;
79074;SDS011;68476;42.710;23.388;2024-02-04T00:46:12;13.55;;;7.45;;
79074;SDS011;68476;42.710;23.388;2024-02-04T00:48:37;14.35;;;7.50;;
79074;SDS011;68476;42.710;23.388;2024-02-04T00:51:05;12.23;;;6.95;;
79074;SDS011;68476;42.710;23.388;2024-02-04T00:53:31;11.45;;;7.25;;
79074;SDS011;68476;42.710;23.388;2024-02-04T00:56:02;12.95;;;7.57;;
79074;SDS011;68476;42.710;23.388;2024-02-04T00:58:28;14.02;;;8.10;;
79074;SDS011;68476;42.710;23.388;2024-02-04T01:00:54;17.20;;;6.93;;
79074;SDS011;68476;42.710;23.388;2024-02-04T01:03:19;13.43;;;7.43;;
79074;SDS011;68476;42.710;23.388;2024-02-04T01:05:45;11.48;;;6.13;;
79074;SDS011;68476;42.710;23.388;2024-02-04T01:08:10;10.02;;;6.00;;
79074;SDS011;68476;42.710;23.388;2024-02-04T01:10:36;12.18;;;5.60;;
79074;SDS011;68476;42.710;23.388;2024-02-04T01:13:01;9.45;;;5.20;;
79074;SDS011;68476;42.710;23.388;2024-02-04T01:15:28;11.60;;;6.15;;
79074;SDS011;68476;42.710;23.388;2024-02-04T01:17:53;8.38;;;5.45;;
79074;SDS011;68476;42.710;23.388;2024-02-04T01:20:19;9.77;;;5.82;;
79074;SDS011;68476;42.710;23.388;2024-02-04T01:22:44;9.50;;;5.43;;
79074;SDS011;68476;42.710;23.388;2024-02-04T01:25:09;10.85;;;6.32;;
79074;SDS011;68476;42.710;23.388;2024-02-04T01:27:35;9.38;;;5.18;;
79074;SDS011;68476;42.710;23.388;2024-02-04T01:30:00;9.82;;;5.47;;
79074;SDS011;68476;42.710;23.388;2024-02-04T01:32:26;11.30;;;5.57;;
79074;SDS011;68476;42.710;23.388;2024-02-04T01:34:51;8.63;;;5.30;;
79074;SDS011;68476;42.710;23.388;2024-02-04T01:37:17;9.30;;;5.22;;
79074;SDS011;68476;42.710;23.388;2024-02-04T01:39:43;7.50;;;5.32;;
79074;SDS011;68476;42.710;23.388;2024-02-04T01:42:08;8.00;;;4.93;;
79074;SDS011;68476;42.710;23.388;2024-02-04T01:44:35;7.97;;;4.75;;
79074;SDS011;68476;42.710;23.388;2024-02-04T01:47:01;6.25;;;4.47;;
79074;SDS011;68476;42.710;23.388;2024-02-04T01:49:26;8.02;;;4.65;;
79074;SDS011;68476;42.710;23.388;2024-02-04T01:51:52;7.05;;;4.35;;
79074;SDS011;68476;42.710;23.388;2024-02-04T01:54:18;8.88;;;5.18;;
79074;SDS011;68476;42.710;23.388;2024-02-04T01:56:46;7.03;;;4.68;;
79074;SDS011;68476;42.710;23.388;2024-02-04T01:59:14;7.88;;;5.03;;
79074;SDS011;68476;42.710;23.388;2024-02-04T02:01:40;9.23;;;5.35;;
79074;SDS011;68476;42.710;23.388;2024-02-04T02:04:08;9.90;;;5.13;;
79074;SDS011;68476;42.710;23.388;2024-02-04T02:06:33;8.27;;;5.15;;
79074;SDS011;68476;42.710;23.388;2024-02-04T02:09:06;6.18;;;4.47;;
79074;SDS011;68476;42.710;23.388;2024-02-04T02:11:37;8.95;;;4.72;;
79074;SDS011;68476;42.710;23.388;2024-02-04T02:14:08;7.32;;;4.65;;
79074;SDS011;68476;42.710;23.388;2024-02-04T02:16:38;8.10;;;4.50;;
79074;SDS011;68476;42.710;23.388;2024-02-04T02:22:00;8.20;;;4.97;;
79074;SDS011;68476;42.710;23.388;2024-02-04T02:24:35;8.38;;;5.10;;
79074;SDS011;68476;42.710;23.388;2024-02-04T02:27:07;7.78;;;4.95;;
79074;SDS011;68476;42.710;23.388;2024-02-04T02:29:32;8.13;;;5.00;;
79074;SDS011;68476;42.710;23.388;2024-02-04T02:31:58;7.25;;;4.53;;
79074;SDS011;68476;42.710;23.388;2024-02-04T02:34:26;11.52;;;5.10;;
79074;SDS011;68476;42.710;23.388;2024-02-04T02:36:59;7.60;;;4.82;;
79074;SDS011;68476;42.710;23.388;2024-02-04T02:39:48;8.05;;;5.10;;
79074;SDS011;68476;42.710;23.388;2024-02-04T02:42:19;7.07;;;4.50;;
79074;SDS011;68476;42.710;23.388;2024-02-04T02:44:47;5.70;;;3.72;;
79074;SDS011;68476;42.710;23.388;2024-02-04T02:47:14;6.18;;;3.70;;
79074;SDS011;68476;42.710;23.388;2024-02-04T02:49:40;4.82;;;3.50;;
79074;SDS011;68476;42.710;23.388;2024-02-04T02:52:06;4.10;;;3.33;;
79074;SDS011;68476;42.710;23.388;2024-02-04T02:54:31;4.85;;;3.63;;
79074;SDS011;68476;42.710;23.388;2024-02-04T02:56:57;6.78;;;3.60;;
79074;SDS011;68476;42.710;23.388;2024-02-04T02:59:22;5.28;;;3.88;;
79074;SDS011;68476;42.710;23.388;2024-02-04T03:01:48;5.15;;;3.33;;
79074;SDS011;68476;42.710;23.388;2024-02-04T03:04:13;5.70;;;3.50;;
79074;SDS011;68476;42.710;23.388;2024-02-04T03:06:39;6.72;;;3.90;;
79074;SDS011;68476;42.710;23.388;2024-02-04T03:09:04;4.85;;;3.30;;
79074;SDS011;68476;42.710;23.388;2024-02-04T03:11:31;6.03;;;3.60;;
79074;SDS011;68476;42.710;23.388;2024-02-04T03:13:56;5.18;;;3.33;;
79074;SDS011;68476;42.710;23.388;2024-02-04T03:16:22;4.68;;;3.45;;
79074;SDS011;68476;42.710;23.388;2024-02-04T03:18:47;6.00;;;3.80;;
79074;SDS011;68476;42.710;23.388;2024-02-04T03:21:13;7.35;;;3.78;;
79074;SDS011;68476;42.710;23.388;2024-02-04T03:23:43;5.65;;;3.13;;
79074;SDS011;68476;42.710;23.388;2024-02-04T03:28:35;5.68;;;3.50;;
79074;SDS011;68476;42.710;23.388;2024-02-04T03:31:01;5.10;;;3.60;;
79074;SDS011;68476;42.710;23.388;2024-02-04T03:33:27;5.60;;;3.55;;
79074;SDS011;68476;42.710;23.388;2024-02-04T03:35:53;7.25;;;4.40;;
79074;SDS011;68476;42.710;23.388;2024-02-04T03:38:18;6.45;;;4.10;;
79074;SDS011;68476;42.710;23.388;2024-02-04T03:40:44;7.28;;;4.50;;
79074;SDS011;68476;42.710;23.388;2024-02-04T03:43:10;7.88;;;5.15;;
79074;SDS011;68476;42.710;23.388;2024-02-04T03:45:35;7.85;;;4.53;;
79074;SDS011;68476;42.710;23.388;2024-02-04T03:48:01;6.20;;;4.13;;
79074;SDS011;68476;42.710;23.388;2024-02-04T03:50:27;6.65;;;4.43;;
79074;SDS011;68476;42.710;23.388;2024-02-04T03:52:53;6.85;;;4.30;;
79074;SDS011;68476;42.710;23.388;2024-02-04T03:55:18;7.45;;;4.70;;
79074;SDS011;68476;42.710;23.388;2024-02-04T03:57:44;7.65;;;4.65;;
79074;SDS011;68476;42.710;23.388;2024-02-04T04:00:10;7.95;;;4.38;;
79074;SDS011;68476;42.710;23.388;2024-02-04T04:02:36;7.75;;;4.15;;
79074;SDS011;68476;42.710;23.388;2024-02-04T04:05:02;6.93;;;4.60;;
79074;SDS011;68476;42.710;23.388;2024-02-04T04:07:27;10.02;;;4.47;;
79074;SDS011;68476;42.710;23.388;2024-02-04T04:09:53;8.52;;;4.15;;
79074;SDS011;68476;42.710;23.388;2024-02-04T04:12:18;7.38;;;4.30;;
79074;SDS011;68476;42.710;23.388;2024-02-04T04:14:44;6.45;;;4.00;;
79074;SDS011;68476;42.710;23.388;2024-02-04T04:17:09;7.90;;;4.50;;
79074;SDS011;68476;42.710;23.388;2024-02-04T04:19:35;7.05;;;4.35;;
79074;SDS011;68476;42.710;23.388;2024-02-04T04:22:02;9.38;;;5.13;;
79074;SDS011;68476;42.710;23.388;2024-02-04T04:24:28;6.47;;;4.57;;
79074;SDS011;68476;42.710;23.388;2024-02-04T04:26:53;7.30;;;4.80;;
79074;SDS011;68476;42.710;23.388;2024-02-04T04:29:19;8.60;;;4.78;;
79074;SDS011;68476;42.710;23.388;2024-02-04T04:31:44;9.05;;;4.85;;
79074;SDS011;68476;42.710;23.388;2024-02-04T04:34:10;7.32;;;5.00;;
79074;SDS011;68476;42.710;23.388;2024-02-04T04:36:35;7.22;;;4.90;;
79074;SDS011;68476;42.710;23.388;2024-02-04T04:39:01;7.57;;;5.20;;
79074;SDS011;68476;42.710;23.388;2024-02-04T04:41:26;7.72;;;4.68;;
79074;SDS011;68476;42.710;23.388;2024-02-04T04:43:52;8.52;;;4.82;;
79074;SDS011;68476;42.710;23.388;2024-02-04T04:46:17;8.68;;;5.25;;
79074;SDS011;68476;42.710;23.388;2024-02-04T04:48:43;6.88;;;4.38;;
79074;SDS011;68476;42.710;23.388;2024-02-04T04:51:08;6.88;;;4.65;;
79074;SDS011;68476;42.710;23.388;2024-02-04T04:53:34;7.95;;;4.43;;
79074;SDS011;68476;42.710;23.388;2024-02-04T04:56:00;7.57;;;5.15;;
79074;SDS011;68476;42.710;23.388;2024-02-04T04:58:25;7.60;;;5.15;;
79074;SDS011;68476;42.710;23.388;2024-02-04T05:00:51;6.68;;;4.78;;
79074;SDS011;68476;42.710;23.388;2024-02-04T05:03:16;6.40;;;4.95;;
79074;SDS011;68476;42.710;23.388;2024-02-04T05:05:42;7.43;;;5.05;;
79074;SDS011;68476;42.710;23.388;2024-02-04T05:08:07;7.65;;;4.32;;
79074;SDS011;68476;42.710;23.388;2024-02-04T05:10:32;8.38;;;4.85;;
79074;SDS011;68476;42.710;23.388;2024-02-04T05:12:58;8.35;;;5.10;;
79074;SDS011;68476;42.710;23.388;2024-02-04T05:15:23;8.77;;;4.90;;
79074;SDS011;68476;42.710;23.388;2024-02-04T05:17:50;5.97;;;4.10;;
79074;SDS011;68476;42.710;23.388;2024-02-04T05:20:16;6.95;;;4.30;;
79074;SDS011;68476;42.710;23.388;2024-02-04T05:22:41;5.28;;;3.65;;
79074;SDS011;68476;42.710;23.388;2024-02-04T05:25:07;7.13;;;4.15;;
79074;SDS011;68476;42.710;23.388;2024-02-04T05:27:34;6.70;;;4.25;;
79074;SDS011;68476;42.710;23.388;2024-02-04T05:30:01;6.13;;;3.88;;
79074;SDS011;68476;42.710;23.388;2024-02-04T05:32:27;5.45;;;3.70;;
79074;SDS011;68476;42.710;23.388;2024-02-04T05:34:53;5.28;;;4.00;;
79074;SDS011;68476;42.710;23.388;2024-02-04T05:37:18;6.35;;;3.58;;
79074;SDS011;68476;42.710;23.388;2024-02-04T05:39:44;5.45;;;3.63;;
79074;SDS011;68476;42.710;23.388;2024-02-04T05:42:09;4.65;;;3.33;;
79074;SDS011;68476;42.710;23.388;2024-02-04T05:44:35;5.95;;;3.50;;
79074;SDS011;68476;42.710;23.388;2024-02-04T05:47:00;5.57;;;3.28;;
79074;SDS011;68476;42.710;23.388;2024-02-04T05:49:26;5.90;;;3.40;;
79074;SDS011;68476;42.710;23.388;2024-02-04T05:51:52;6.07;;;4.10;;
79074;SDS011;68476;42.710;23.388;2024-02-04T05:54:17;7.68;;;3.65;;
79074;SDS011;68476;42.710;23.388;2024-02-04T05:56:43;6.50;;;3.85;;
79074;SDS011;68476;42.710;23.388;2024-02-04T05:59:09;6.60;;;4.15;;
79074;SDS011;68476;42.710;23.388;2024-02-04T06:01:34;6.97;;;3.90;;
79074;SDS011;68476;42.710;23.388;2024-02-04T06:04:00;6.45;;;4.00;;
79074;SDS011;68476;42.710;23.388;2024-02-04T06:06:25;5.93;;;4.22;;
79074;SDS011;68476;42.710;23.388;2024-02-04T06:08:51;6.25;;;4.15;;
79074;SDS011;68476;42.710;23.388;2024-02-04T06:11:17;8.40;;;4.47;;
79074;SDS011;68476;42.710;23.388;2024-02-04T06:13:43;7.65;;;4.38;;
79074;SDS011;68476;42.710;23.388;2024-02-04T06:16:09;8.63;;;5.05;;
79074;SDS011;68476;42.710;23.388;2024-02-04T06:18:36;9.23;;;5.60;;
79074;SDS011;68476;42.710;23.388;2024-02-04T06:21:03;7.68;;;5.60;;
79074;SDS011;68476;42.710;23.388;2024-02-04T06:23:32;7.18;;;5.05;;
79074;SDS011;68476;42.710;23.388;2024-02-04T06:25:57;9.63;;;6.00;;
79074;SDS011;68476;42.710;23.388;2024-02-04T06:28:23;9.23;;;5.72;;
79074;SDS011;68476;42.710;23.388;2024-02-04T06:30:49;7.28;;;5.03;;
79074;SDS011;68476;42.710;23.388;2024-02-04T06:33:14;8.07;;;5.45;;
79074;SDS011;68476;42.710;23.388;2024-02-04T06:35:40;7.35;;;4.80;;
79074;SDS011;68476;42.710;23.388;2024-02-04T06:38:06;6.57;;;4.45;;
79074;SDS011;68476;42.710;23.388;2024-02-04T06:40:31;7.00;;;5.07;;
79074;SDS011;68476;42.710;23.388;2024-02-04T06:42:57;8.68;;;4.97;;
79074;SDS011;68476;42.710;23.388;2024-02-04T06:45:22;7.63;;;4.60;;
79074;SDS011;68476;42.710;23.388;2024-02-04T06:47:48;7.85;;;4.57;;
79074;SDS011;68476;42.710;23.388;2024-02-04T06:50:13;7.20;;;4.82;;
79074;SDS011;68476;42.710;23.388;2024-02-04T06:52:42;6.57;;;4.18;;
79074;SDS011;68476;42.710;23.388;2024-02-04T06:55:09;8.55;;;4.38;;
79074;SDS011;68476;42.710;23.388;2024-02-04T06:57:34;7.93;;;4.78;;
79074;SDS011;68476;42.710;23.388;2024-02-04T07:00:00;6.07;;;4.45;;
79074;SDS011;68476;42.710;23.388;2024-02-04T07:02:25;8.57;;;4.53;;
79074;SDS011;68476;42.710;23.388;2024-02-04T07:04:51;7.63;;;4.70;;
79074;SDS011;68476;42.710;23.388;2024-02-04T07:07:17;6.85;;;4.35;;
79074;SDS011;68476;42.710;23.388;2024-02-04T07:09:43;6.95;;;4.85;;
79074;SDS011;68476;42.710;23.388;2024-02-04T07:12:08;5.57;;;4.13;;
79074;SDS011;68476;42.710;23.388;2024-02-04T07:14:34;6.38;;;4.43;;
79074;SDS011;68476;42.710;23.388;2024-02-04T07:16:59;5.88;;;3.58;;
79074;SDS011;68476;42.710;23.388;2024-02-04T07:19:24;8.52;;;3.97;;
79074;SDS011;68476;42.710;23.388;2024-02-04T07:21:50;6.60;;;4.40;;
79074;SDS011;68476;42.710;23.388;2024-02-04T07:24:15;7.40;;;4.28;;
79074;SDS011;68476;42.710;23.388;2024-02-04T07:26:41;5.30;;;3.80;;
79074;SDS011;68476;42.710;23.388;2024-02-04T07:29:06;4.38;;;3.30;;
79074;SDS011;68476;42.710;23.388;2024-02-04T07:31:32;5.60;;;3.88;;
79074;SDS011;68476;42.710;23.388;2024-02-04T07:33:57;6.60;;;3.80;;
79074;SDS011;68476;42.710;23.388;2024-02-04T07:36:23;6.15;;;4.28;;
79074;SDS011;68476;42.710;23.388;2024-02-04T07:38:48;6.70;;;4.28;;
79074;SDS011;68476;42.710;23.388;2024-02-04T07:41:14;7.00;;;4.20;;
79074;SDS011;68476;42.710;23.388;2024-02-04T07:43:40;5.22;;;3.88;;
79074;SDS011;68476;42.710;23.388;2024-02-04T07:46:07;6.30;;;3.60;;
79074;SDS011;68476;42.710;23.388;2024-02-04T07:48:36;5.68;;;3.10;;
79074;SDS011;68476;42.710;23.388;2024-02-04T07:51:02;5.10;;;3.45;;
79074;SDS011;68476;42.710;23.388;2024-02-04T07:53:27;6.70;;;3.85;;
79074;SDS011;68476;42.710;23.388;2024-02-04T07:55:52;4.28;;;2.85;;
79074;SDS011;68476;42.710;23.388;2024-02-04T07:58:18;5.07;;;3.33;;
79074;SDS011;68476;42.710;23.388;2024-02-04T08:00:44;4.80;;;3.38;;
79074;SDS011;68476;42.710;23.388;2024-02-04T08:03:10;5.07;;;3.30;;
79074;SDS011;68476;42.710;23.388;2024-02-04T08:05:35;5.28;;;3.30;;
79074;SDS011;68476;42.710;23.388;2024-02-04T08:08:01;4.45;;;3.08;;
79074;SDS011;68476;42.710;23.388;2024-02-04T08:10:27;7.82;;;3.60;;
79074;SDS011;68476;42.710;23.388;2024-02-04T08:12:52;4.07;;;2.88;;
79074;SDS011;68476;42.710;23.388;2024-02-04T08:15:19;8.30;;;3.83;;
79074;SDS011;68476;42.710;23.388;2024-02-04T08:17:45;7.82;;;3.60;;
79074;SDS011;68476;42.710;23.388;2024-02-04T08:20:11;8.40;;;4.60;;
79074;SDS011;68476;42.710;23.388;2024-02-04T08:22:37;5.07;;;3.45;;
79074;SDS011;68476;42.710;23.388;2024-02-04T08:25:03;4.45;;;2.92;;
79074;SDS011;68476;42.710;23.388;2024-02-04T08:27:30;4.38;;;2.88;;
79074;SDS011;68476;42.710;23.388;2024-02-04T08:29:56;6.85;;;2.90;;
79074;SDS011;68476;42.710;23.388;2024-02-04T08:32:21;4.40;;;2.83;;
79074;SDS011;68476;42.710;23.388;2024-02-04T08:34:47;4.63;;;2.80;;
79074;SDS011;68476;42.710;23.388;2024-02-04T08:37:12;4.32;;;2.95;;
79074;SDS011;68476;42.710;23.388;2024-02-04T08:39:38;5.22;;;2.60;;
79074;SDS011;68476;42.710;23.388;2024-02-04T08:42:03;3.38;;;2.35;;
79074;SDS011;68476;42.710;23.388;2024-02-04T08:44:29;4.38;;;2.63;;
79074;SDS011;68476;42.710;23.388;2024-02-04T08:46:54;4.13;;;2.65;;
79074;SDS011;68476;42.710;23.388;2024-02-04T08:49:21;4.47;;;2.53;;
79074;SDS011;68476;42.710;23.388;2024-02-04T08:51:46;3.75;;;2.50;;
79074;SDS011;68476;42.710;23.388;2024-02-04T08:54:11;3.63;;;2.40;;
79074;SDS011;68476;42.710;23.388;2024-02-04T08:56:37;3.83;;;2.45;;
79074;SDS011;68476;42.710;23.388;2024-02-04T08:59:03;3.85;;;2.63;;
79074;SDS011;68476;42.710;23.388;2024-02-04T09:01:28;4.07;;;2.53;;
79074;SDS011;68476;42.710;23.388;2024-02-04T09:03:54;3.70;;;2.30;;
79074;SDS011;68476;42.710;23.388;2024-02-04T09:06:19;4.57;;;2.30;;
79074;SDS011;68476;42.710;23.388;2024-02-04T09:08:45;3.35;;;2.25;;
79074;SDS011;68476;42.710;23.388;2024-02-04T09:11:11;3.78;;;2.10;;
79074;SDS011;68476;42.710;23.388;2024-02-04T09:13:43;6.28;;;2.55;;
79074;SDS011;68476;42.710;23.388;2024-02-04T09:16:09;4.13;;;2.38;;
79074;SDS011;68476;42.710;23.388;2024-02-04T09:18:35;7.63;;;2.40;;
79074;SDS011;68476;42.710;23.388;2024-02-04T09:21:01;3.88;;;2.58;;
79074;SDS011;68476;42.710;23.388;2024-02-04T09:23:27;4.55;;;2.42;;
79074;SDS011;68476;42.710;23.388;2024-02-04T09:25:52;5.10;;;2.30;;
79074;SDS011;68476;42.710;23.388;2024-02-04T09:28:18;4.57;;;2.60;;
79074;SDS011;68476;42.710;23.388;2024-02-04T09:30:43;3.28;;;2.45;;
79074;SDS011;68476;42.710;23.388;2024-02-04T09:33:09;3.45;;;2.40;;
79074;SDS011;68476;42.710;23.388;2024-02-04T09:35:34;5.68;;;2.55;;
79074;SDS011;68476;42.710;23.388;2024-02-04T09:38:00;3.63;;;2.42;;
79074;SDS011;68476;42.710;23.388;2024-02-04T09:40:25;3.88;;;2.50;;
79074;SDS011;68476;42.710;23.388;2024-02-04T09:42:51;4.32;;;2.70;;
79074;SDS011;68476;42.710;23.388;2024-02-04T09:45:17;4.25;;;2.65;;
79074;SDS011;68476;42.710;23.388;2024-02-04T09:47:42;4.88;;;2.63;;
79074;SDS011;68476;42.710;23.388;2024-02-04T09:50:10;3.97;;;2.78;;
79074;SDS011;68476;42.710;23.388;2024-02-04T09:52:37;4.80;;;2.60;;
79074;SDS011;68476;42.710;23.388;2024-02-04T09:55:06;3.08;;;2.28;;
79074;SDS011;68476;42.710;23.388;2024-02-04T09:57:33;6.82;;;2.75;;
79074;SDS011;68476;42.710;23.388;2024-02-04T10:00:00;3.88;;;2.95;;
79074;SDS011;68476;42.710;23.388;2024-02-04T10:02:30;7.72;;;3.00;;
79074;SDS011;68476;42.710;23.388;2024-02-04T10:04:57;3.72;;;2.33;;
79074;SDS011;68476;42.710;23.388;2024-02-04T10:07:23;4.07;;;2.45;;
79074;SDS011;68476;42.710;23.388;2024-02-04T10:09:49;7.63;;;3.17;;
79074;SDS011;68476;42.710;23.388;2024-02-04T10:12:15;4.03;;;2.30;;
79074;SDS011;68476;42.710;23.388;2024-02-04T10:14:42;7.93;;;2.63;;
79074;SDS011;68476;42.710;23.388;2024-02-04T10:17:07;3.42;;;2.47;;
79074;SDS011;68476;42.710;23.388;2024-02-04T10:19:33;3.45;;;2.13;;
79074;SDS011;68476;42.710;23.388;2024-02-04T10:22:02;5.28;;;2.78;;
79074;SDS011;68476;42.710;23.388;2024-02-04T10:24:28;3.15;;;1.90;;
79074;SDS011;68476;42.710;23.388;2024-02-04T10:26:54;4.35;;;2.35;;
79074;SDS011;68476;42.710;23.388;2024-02-04T10:29:21;5.35;;;2.30;;
79074;SDS011;68476;42.710;23.388;2024-02-04T10:31:47;3.40;;;2.40;;
79074;SDS011;68476;42.710;23.388;2024-02-04T10:34:13;4.28;;;3.13;;
79074;SDS011;68476;42.710;23.388;2024-02-04T10:36:38;3.15;;;2.17;;
79074;SDS011;68476;42.710;23.388;2024-02-04T10:39:04;6.00;;;2.58;;
79074;SDS011;68476;42.710;23.388;2024-02-04T10:41:29;4.50;;;2.35;;
79074;SDS011;68476;42.710;23.388;2024-02-04T10:43:59;7.18;;;2.53;;
79074;SDS011;68476;42.710;23.388;2024-02-04T10:46:29;3.33;;;2.30;;
79074;SDS011;68476;42.710;23.388;2024-02-04T10:49:00;6.70;;;3.13;;
79074;SDS011;68476;42.710;23.388;2024-02-04T10:51:28;2.72;;;2.15;;
79074;SDS011;68476;42.710;23.388;2024-02-04T10:53:56;3.25;;;2.17;;
79074;SDS011;68476;42.710;23.388;2024-02-04T10:59:09;4.45;;;1.75;;
79074;SDS011;68476;42.710;23.388;2024-02-04T11:01:38;3.25;;;2.20;;
79074;SDS011;68476;42.710;23.388;2024-02-04T11:04:04;3.20;;;2.25;;
79074;SDS011;68476;42.710;23.388;2024-02-04T11:06:31;4.03;;;2.10;;
79074;SDS011;68476;42.710;23.388;2024-02-04T11:08:58;5.10;;;2.08;;
79074;SDS011;68476;42.710;23.388;2024-02-04T11:11:25;4.28;;;1.98;;
79074;SDS011;68476;42.710;23.388;2024-02-04T11:13:53;2.70;;;2.10;;
79074;SDS011;68476;42.710;23.388;2024-02-04T11:27:46;4.60;;;2.33;;
79074;SDS011;68476;42.710;23.388;2024-02-04T11:30:11;4.18;;;2.40;;
79074;SDS011;68476;42.710;23.388;2024-02-04T11:32:37;3.60;;;2.45;;
79074;SDS011;68476;42.710;23.388;2024-02-04T11:35:02;3.88;;;2.30;;
79074;SDS011;68476;42.710;23.388;2024-02-04T11:37:32;4.07;;;2.72;;
79074;SDS011;68476;42.710;23.388;2024-02-04T11:39:58;3.90;;;2.35;;
79074;SDS011;68476;42.710;23.388;2024-02-04T11:42:24;5.18;;;2.55;;
79074;SDS011;68476;42.710;23.388;2024-02-04T11:44:50;5.13;;;2.10;;
79074;SDS011;68476;42.710;23.388;2024-02-04T11:47:22;3.03;;;2.17;;
79074;SDS011;68476;42.710;23.388;2024-02-04T11:49:55;3.58;;;2.40;;
79074;SDS011;68476;42.710;23.388;2024-02-04T11:52:22;3.95;;;2.20;;
79074;SDS011;68476;42.710;23.388;2024-02-04T11:54:48;10.43;;;2.63;;
79074;SDS011;68476;42.710;23.388;2024-02-04T11:57:14;3.88;;;2.10;;
79074;SDS011;68476;42.710;23.388;2024-02-04T11:59:40;3.42;;;2.20;;
79074;SDS011;68476;42.710;23.388;2024-02-04T12:02:07;3.50;;;2.28;;
79074;SDS011;68476;42.710;23.388;2024-02-04T12:04:33;4.05;;;2.47;;
79074;SDS011;68476;42.710;23.388;2024-02-04T12:06:59;3.90;;;2.22;;
79074;SDS011;68476;42.710;23.388;2024-02-04T12:09:26;3.38;;;2.10;;
79074;SDS011;68476;42.710;23.388;2024-02-04T12:11:53;3.13;;;2.10;;
79074;SDS011;68476;42.710;23.388;2024-02-04T12:14:19;2.90;;;2.33;;
79074;SDS011;68476;42.710;23.388;2024-02-04T12:16:45;3.50;;;2.30;;
79074;SDS011;68476;42.710;23.388;2024-02-04T12:19:10;3.20;;;2.10;;
79074;SDS011;68476;42.710;23.388;2024-02-04T12:21:36;3.35;;;2.28;;
79074;SDS011;68476;42.710;23.388;2024-02-04T12:24:02;4.75;;;2.40;;
79074;SDS011;68476;42.710;23.388;2024-02-04T12:26:28;3.03;;;2.20;;
79074;SDS011;68476;42.710;23.388;2024-02-04T12:28:54;2.83;;;2.20;;
79074;SDS011;68476;42.710;23.388;2024-02-04T12:31:21;4.68;;;2.58;;
79074;SDS011;68476;42.710;23.388;2024-02-04T12:33:56;6.78;;;3.17;;
79074;SDS011;68476;42.710;23.388;2024-02-04T12:36:26;3.22;;;2.30;;
79074;SDS011;68476;42.710;23.388;2024-02-04T12:38:53;3.90;;;2.28;;
79074;SDS011;68476;42.710;23.388;2024-02-04T12:41:23;4.90;;;2.83;;
79074;SDS011;68476;42.710;23.388;2024-02-04T12:43:56;4.03;;;2.55;;
79074;SDS011;68476;42.710;23.388;2024-02-04T12:46:23;6.38;;;2.28;;
79074;SDS011;68476;42.710;23.388;2024-02-04T12:48:52;3.97;;;2.20;;
79074;SDS011;68476;42.710;23.388;2024-02-04T12:51:24;3.13;;;2.38;;
79074;SDS011;68476;42.710;23.388;2024-02-04T12:56:39;2.92;;;2.28;;
79074;SDS011;68476;42.710;23.388;2024-02-04T12:59:27;6.10;;;2.55;;
79074;SDS011;68476;42.710;23.388;2024-02-04T13:01:57;4.20;;;2.80;;
79074;SDS011;68476;42.710;23.388;2024-02-04T13:04:22;5.22;;;2.65;;
79074;SDS011;68476;42.710;23.388;2024-02-04T13:06:48;3.88;;;2.80;;
79074;SDS011;68476;42.710;23.388;2024-02-04T13:09:14;2.75;;;2.25;;
79074;SDS011;68476;42.710;23.388;2024-02-04T13:11:41;3.63;;;2.40;;
79074;SDS011;68476;42.710;23.388;2024-02-04T13:14:07;5.10;;;2.35;;
79074;SDS011;68476;42.710;23.388;2024-02-04T13:16:33;4.47;;;2.63;;
79074;SDS011;68476;42.710;23.388;2024-02-04T13:19:01;3.22;;;2.33;;
79074;SDS011;68476;42.710;23.388;2024-02-04T13:21:27;4.28;;;2.53;;
79074;SDS011;68476;42.710;23.388;2024-02-04T13:23:53;3.47;;;2.50;;
79074;SDS011;68476;42.710;23.388;2024-02-04T13:26:18;5.03;;;2.72;;
79074;SDS011;68476;42.710;23.388;2024-02-04T13:28:44;4.07;;;2.40;;
79074;SDS011;68476;42.710;23.388;2024-02-04T13:31:09;3.25;;;2.40;;
79074;SDS011;68476;42.710;23.388;2024-02-04T13:33:35;4.95;;;2.60;;
79074;SDS011;68476;42.710;23.388;2024-02-04T13:36:03;4.40;;;2.97;;
79074;SDS011;68476;42.710;23.388;2024-02-04T13:38:29;3.63;;;2.50;;
79074;SDS011;68476;42.710;23.388;2024-02-04T13:40:54;3.90;;;2.40;;
79074;SDS011;68476;42.710;23.388;2024-02-04T13:43:20;3.25;;;2.45;;
79074;SDS011;68476;42.710;23.388;2024-02-04T13:45:46;5.28;;;2.75;;
79074;SDS011;68476;42.710;23.388;2024-02-04T13:48:12;2.97;;;2.35;;
79074;SDS011;68476;42.710;23.388;2024-02-04T13:50:37;3.92;;;2.47;;
79074;SDS011;68476;42.710;23.388;2024-02-04T13:53:04;4.13;;;2.50;;
79074;SDS011;68476;42.710;23.388;2024-02-04T13:55:29;4.40;;;2.60;;
79074;SDS011;68476;42.710;23.388;2024-02-04T13:57:55;3.60;;;2.47;;
79074;SDS011;68476;42.710;23.388;2024-02-04T14:00:20;3.70;;;2.65;;
79074;SDS011;68476;42.710;23.388;2024-02-04T14:02:46;3.65;;;2.60;;
79074;SDS011;68476;42.710;23.388;2024-02-04T14:05:11;4.30;;;2.55;;
79074;SDS011;68476;42.710;23.388;2024-02-04T14:07:37;3.55;;;2.33;;
79074;SDS011;68476;42.710;23.388;2024-02-04T14:10:02;5.55;;;2.90;;
79074;SDS011;68476;42.710;23.388;2024-02-04T14:12:28;3.45;;;2.50;;
79074;SDS011;68476;42.710;23.388;2024-02-04T14:14:54;5.00;;;2.72;;
79074;SDS011;68476;42.710;23.388;2024-02-04T14:17:20;3.90;;;2.83;;
79074;SDS011;68476;42.710;23.388;2024-02-04T14:19:45;4.07;;;2.50;;
79074;SDS011;68476;42.710;23.388;2024-02-04T14:22:14;3.88;;;2.80;;
79074;SDS011;68476;42.710;23.388;2024-02-04T14:24:41;4.75;;;2.90;;
79074;SDS011;68476;42.710;23.388;2024-02-04T14:27:06;3.80;;;2.60;;
79074;SDS011;68476;42.710;23.388;2024-02-04T14:29:32;3.35;;;2.20;;
79074;SDS011;68476;42.710;23.388;2024-02-04T14:31:57;3.78;;;2.38;;
79074;SDS011;68476;42.710;23.388;2024-02-04T14:34:23;3.97;;;2.38;;
79074;SDS011;68476;42.710;23.388;2024-02-04T14:36:49;3.60;;;2.35;;
79074;SDS011;68476;42.710;23.388;2024-02-04T14:39:15;3.92;;;2.40;;
79074;SDS011;68476;42.710;23.388;2024-02-04T14:41:41;4.22;;;3.00;;
79074;SDS011;68476;42.710;23.388;2024-02-04T14:44:06;4.50;;;2.83;;
79074;SDS011;68476;42.710;23.388;2024-02-04T14:46:32;4.32;;;2.40;;
79074;SDS011;68476;42.710;23.388;2024-02-04T14:49:01;3.70;;;2.33;;
79074;SDS011;68476;42.710;23.388;2024-02-04T14:51:27;4.25;;;2.53;;